<?xml version="1.0" encoding="UTF-8" standalone="no" ?>
<gpx xmlns="http://www.topografix.com/GPX/1/1" xmlns:xsi="http://www.w3.org/2001/XMLSchema-instance" xsi:schemaLocation="http://www.topografix.com/GPX/1/1 http://www.topografix.com/GPX/1/1/gpx.xsd" version="1.1" creator="VisuGPX - https://www.visugpx.com">
  <metadata>
    <name>Parcours voiture algarve 1</name>
    <desc><![CDATA[Parcours voiture algarve 1]]></desc>
  </metadata>
  <trk>
    <name><![CDATA[ACTIVE LOG131146]]></name>
    <trkseg>
      <trkpt lat="37.06857" lon="-8.10253">
        <ele>5.273</ele>
        <time>2011-08-05T11:11:46Z</time>
      </trkpt>
      <trkpt lat="37.06863" lon="-8.10258">
        <ele>4.09</ele>
        <time>2011-08-05T11:11:48Z</time>
      </trkpt>
      <trkpt lat="37.06873" lon="-8.10265">
        <ele>14.772</ele>
        <time>2011-08-05T11:12:00Z</time>
      </trkpt>
      <trkpt lat="37.06882" lon="-8.10289">
        <ele>13.563</ele>
        <time>2011-08-05T11:12:11Z</time>
      </trkpt>
      <trkpt lat="37.06891" lon="-8.10306">
        <ele>14.422</ele>
        <time>2011-08-05T11:12:15Z</time>
      </trkpt>
      <trkpt lat="37.0693" lon="-8.10347">
        <ele>17.939</ele>
        <time>2011-08-05T11:12:25Z</time>
      </trkpt>
      <trkpt lat="37.06938" lon="-8.10356">
        <ele>19.859</ele>
        <time>2011-08-05T11:12:34Z</time>
      </trkpt>
      <trkpt lat="37.06951" lon="-8.10369">
        <ele>16.878</ele>
        <time>2011-08-05T11:12:38Z</time>
      </trkpt>
      <trkpt lat="37.06999" lon="-8.10419">
        <ele>14.214</ele>
        <time>2011-08-05T11:12:49Z</time>
      </trkpt>
      <trkpt lat="37.07032" lon="-8.10444">
        <ele>15.422</ele>
        <time>2011-08-05T11:12:56Z</time>
      </trkpt>
      <trkpt lat="37.07045" lon="-8.10452">
        <ele>16.554</ele>
        <time>2011-08-05T11:13:00Z</time>
      </trkpt>
      <trkpt lat="37.07092" lon="-8.10514">
        <ele>12.64</ele>
        <time>2011-08-05T11:13:10Z</time>
      </trkpt>
      <trkpt lat="37.07126" lon="-8.10581">
        <ele>11.102</ele>
        <time>2011-08-05T11:13:19Z</time>
      </trkpt>
      <trkpt lat="37.07138" lon="-8.10625">
        <ele>11.629</ele>
        <time>2011-08-05T11:13:29Z</time>
      </trkpt>
      <trkpt lat="37.07147" lon="-8.10655">
        <ele>8.897</ele>
        <time>2011-08-05T11:13:48Z</time>
      </trkpt>
      <trkpt lat="37.07151" lon="-8.10668">
        <ele>8.6</ele>
        <time>2011-08-05T11:13:50Z</time>
      </trkpt>
      <trkpt lat="37.07164" lon="-8.10705">
        <ele>10.068</ele>
        <time>2011-08-05T11:13:54Z</time>
      </trkpt>
      <trkpt lat="37.07172" lon="-8.10726">
        <ele>7.723</ele>
        <time>2011-08-05T11:14:00Z</time>
      </trkpt>
      <trkpt lat="37.07173" lon="-8.10731">
        <ele>6.889</ele>
        <time>2011-08-05T11:14:02Z</time>
      </trkpt>
      <trkpt lat="37.07204" lon="-8.10751">
        <ele>5.675</ele>
        <time>2011-08-05T11:14:06Z</time>
      </trkpt>
      <trkpt lat="37.07284" lon="-8.10768">
        <ele>7.078</ele>
        <time>2011-08-05T11:14:16Z</time>
      </trkpt>
      <trkpt lat="37.0733" lon="-8.10778">
        <ele>9.66</ele>
        <time>2011-08-05T11:14:22Z</time>
      </trkpt>
      <trkpt lat="37.07356" lon="-8.10784">
        <ele>7.486</ele>
        <time>2011-08-05T11:14:25Z</time>
      </trkpt>
      <trkpt lat="37.07387" lon="-8.10791">
        <ele>6.34</ele>
        <time>2011-08-05T11:14:29Z</time>
      </trkpt>
      <trkpt lat="37.07492" lon="-8.10813">
        <ele>8.626</ele>
        <time>2011-08-05T11:14:39Z</time>
      </trkpt>
      <trkpt lat="37.0754" lon="-8.10805">
        <ele>10.314</ele>
        <time>2011-08-05T11:14:44Z</time>
      </trkpt>
      <trkpt lat="37.07555" lon="-8.10794">
        <ele>12.177</ele>
        <time>2011-08-05T11:14:51Z</time>
      </trkpt>
      <trkpt lat="37.07576" lon="-8.10771">
        <ele>13.33</ele>
        <time>2011-08-05T11:15:19Z</time>
      </trkpt>
      <trkpt lat="37.0758" lon="-8.10766">
        <ele>13.622</ele>
        <time>2011-08-05T11:15:20Z</time>
      </trkpt>
      <trkpt lat="37.076" lon="-8.10781">
        <ele>12.592</ele>
        <time>2011-08-05T11:15:24Z</time>
      </trkpt>
      <trkpt lat="37.07706" lon="-8.10849">
        <ele>10.593</ele>
        <time>2011-08-05T11:15:34Z</time>
      </trkpt>
      <trkpt lat="37.07792" lon="-8.10902">
        <ele>14.11</ele>
        <time>2011-08-05T11:15:44Z</time>
      </trkpt>
      <trkpt lat="37.07862" lon="-8.10939">
        <ele>13.979</ele>
        <time>2011-08-05T11:15:51Z</time>
      </trkpt>
      <trkpt lat="37.07907" lon="-8.11012">
        <ele>9.46</ele>
        <time>2011-08-05T11:15:58Z</time>
      </trkpt>
      <trkpt lat="37.07915" lon="-8.11033">
        <ele>8.588</ele>
        <time>2011-08-05T11:16:00Z</time>
      </trkpt>
      <trkpt lat="37.0792" lon="-8.11044">
        <ele>7.937</ele>
        <time>2011-08-05T11:16:04Z</time>
      </trkpt>
      <trkpt lat="37.07914" lon="-8.111">
        <ele>9.173</ele>
        <time>2011-08-05T11:16:10Z</time>
      </trkpt>
      <trkpt lat="37.079" lon="-8.111">
        <ele>9.377</ele>
        <time>2011-08-05T11:16:12Z</time>
      </trkpt>
      <trkpt lat="37.0787" lon="-8.11116">
        <ele>9.547</ele>
        <time>2011-08-05T11:16:16Z</time>
      </trkpt>
      <trkpt lat="37.07846" lon="-8.11184">
        <ele>8.831</ele>
        <time>2011-08-05T11:16:23Z</time>
      </trkpt>
      <trkpt lat="37.07839" lon="-8.11303">
        <ele>4.678</ele>
        <time>2011-08-05T11:16:33Z</time>
      </trkpt>
      <trkpt lat="37.0785" lon="-8.1136">
        <ele>3.626</ele>
        <time>2011-08-05T11:16:38Z</time>
      </trkpt>
      <trkpt lat="37.07867" lon="-8.11402">
        <ele>3.414</ele>
        <time>2011-08-05T11:16:42Z</time>
      </trkpt>
      <trkpt lat="37.07859" lon="-8.11468">
        <ele>3.572</ele>
        <time>2011-08-05T11:16:49Z</time>
      </trkpt>
      <trkpt lat="37.07852" lon="-8.11486">
        <ele>4.072</ele>
        <time>2011-08-05T11:16:53Z</time>
      </trkpt>
      <trkpt lat="37.07829" lon="-8.11542">
        <ele>8.95</ele>
        <time>2011-08-05T11:17:07Z</time>
      </trkpt>
      <trkpt lat="37.07827" lon="-8.11548">
        <ele>9.165</ele>
        <time>2011-08-05T11:17:21Z</time>
      </trkpt>
      <trkpt lat="37.07814" lon="-8.11544">
        <ele>9.089</ele>
        <time>2011-08-05T11:17:26Z</time>
      </trkpt>
      <trkpt lat="37.07795" lon="-8.11561">
        <ele>9.684</ele>
        <time>2011-08-05T11:17:32Z</time>
      </trkpt>
      <trkpt lat="37.07771" lon="-8.11618">
        <ele>9.969</ele>
        <time>2011-08-05T11:17:45Z</time>
      </trkpt>
      <trkpt lat="37.07743" lon="-8.11671">
        <ele>10.12</ele>
        <time>2011-08-05T11:17:57Z</time>
      </trkpt>
      <trkpt lat="37.0774" lon="-8.11675">
        <ele>10.852</ele>
        <time>2011-08-05T11:17:58Z</time>
      </trkpt>
      <trkpt lat="37.07686" lon="-8.11735">
        <ele>11.669</ele>
        <time>2011-08-05T11:18:09Z</time>
      </trkpt>
      <trkpt lat="37.07662" lon="-8.11762">
        <ele>12.405</ele>
        <time>2011-08-05T11:18:14Z</time>
      </trkpt>
      <trkpt lat="37.07614" lon="-8.11825">
        <ele>13.865</ele>
        <time>2011-08-05T11:18:24Z</time>
      </trkpt>
      <trkpt lat="37.07594" lon="-8.11838">
        <ele>13.568</ele>
        <time>2011-08-05T11:18:27Z</time>
      </trkpt>
      <trkpt lat="37.0757" lon="-8.11846">
        <ele>12.247</ele>
        <time>2011-08-05T11:18:31Z</time>
      </trkpt>
      <trkpt lat="37.07485" lon="-8.11863">
        <ele>10.479</ele>
        <time>2011-08-05T11:18:44Z</time>
      </trkpt>
      <trkpt lat="37.07437" lon="-8.11832">
        <ele>8.056</ele>
        <time>2011-08-05T11:18:53Z</time>
      </trkpt>
      <trkpt lat="37.07434" lon="-8.11819">
        <ele>7.908</ele>
        <time>2011-08-05T11:18:55Z</time>
      </trkpt>
      <trkpt lat="37.07432" lon="-8.11804">
        <ele>8.333</ele>
        <time>2011-08-05T11:18:58Z</time>
      </trkpt>
      <trkpt lat="37.07414" lon="-8.11799">
        <ele>7.378</ele>
        <time>2011-08-05T11:19:03Z</time>
      </trkpt>
      <trkpt lat="37.07366" lon="-8.1182">
        <ele>6.755</ele>
        <time>2011-08-05T11:19:16Z</time>
      </trkpt>
      <trkpt lat="37.07321" lon="-8.11839">
        <ele>5.976</ele>
        <time>2011-08-05T11:19:26Z</time>
      </trkpt>
      <trkpt lat="37.07294" lon="-8.11851">
        <ele>8.052</ele>
        <time>2011-08-05T11:19:34Z</time>
      </trkpt>
      <trkpt lat="37.07283" lon="-8.11862">
        <ele>7.016</ele>
        <time>2011-08-05T11:19:40Z</time>
      </trkpt>
      <trkpt lat="37.07282" lon="-8.1186">
        <ele>6.858</ele>
        <time>2011-08-05T11:19:42Z</time>
      </trkpt>
      <trkpt lat="37.07288" lon="-8.11852">
        <ele>7.352</ele>
        <time>2011-08-05T11:19:48Z</time>
      </trkpt>
      <trkpt lat="37.07294" lon="-8.11851">
        <ele>7.908</ele>
        <time>2011-08-05T11:19:50Z</time>
      </trkpt>
      <trkpt lat="37.07364" lon="-8.11821">
        <ele>1.471</ele>
        <time>2011-08-05T11:20:01Z</time>
      </trkpt>
      <trkpt lat="37.07409" lon="-8.11801">
        <ele>-1.428</ele>
        <time>2011-08-05T11:20:12Z</time>
      </trkpt>
      <trkpt lat="37.07417" lon="-8.11797">
        <ele>-1.732</ele>
        <time>2011-08-05T11:20:28Z</time>
      </trkpt>
      <trkpt lat="37.07424" lon="-8.11794">
        <ele>1.569</ele>
        <time>2011-08-05T11:20:39Z</time>
      </trkpt>
      <trkpt lat="37.07431" lon="-8.11791">
        <ele>1.531</ele>
        <time>2011-08-05T11:20:46Z</time>
      </trkpt>
      <trkpt lat="37.07434" lon="-8.11715">
        <ele>1.608</ele>
        <time>2011-08-05T11:20:56Z</time>
      </trkpt>
      <trkpt lat="37.07447" lon="-8.11636">
        <ele>2.177</ele>
        <time>2011-08-05T11:21:05Z</time>
      </trkpt>
      <trkpt lat="37.07495" lon="-8.11542">
        <ele>5.66</ele>
        <time>2011-08-05T11:21:18Z</time>
      </trkpt>
      <trkpt lat="37.0754" lon="-8.11502">
        <ele>4.182</ele>
        <time>2011-08-05T11:21:29Z</time>
      </trkpt>
      <trkpt lat="37.07571" lon="-8.1148">
        <ele>2.432</ele>
        <time>2011-08-05T11:21:36Z</time>
      </trkpt>
      <trkpt lat="37.07622" lon="-8.11469">
        <ele>2.552</ele>
        <time>2011-08-05T11:21:47Z</time>
      </trkpt>
      <trkpt lat="37.07643" lon="-8.11469">
        <ele>3.632</ele>
        <time>2011-08-05T11:21:57Z</time>
      </trkpt>
      <trkpt lat="37.07657" lon="-8.11472">
        <ele>10.101</ele>
        <time>2011-08-05T11:22:07Z</time>
      </trkpt>
      <trkpt lat="37.07709" lon="-8.11488">
        <ele>2.795</ele>
        <time>2011-08-05T11:22:16Z</time>
      </trkpt>
      <trkpt lat="37.07804" lon="-8.11538">
        <ele>3.614</ele>
        <time>2011-08-05T11:22:30Z</time>
      </trkpt>
      <trkpt lat="37.07804" lon="-8.11538">
        <ele>4</ele>
        <time>2011-08-05T11:22:31Z</time>
      </trkpt>
      <trkpt lat="37.07836" lon="-8.11526">
        <ele>4.84</ele>
        <time>2011-08-05T11:22:36Z</time>
      </trkpt>
      <trkpt lat="37.07867" lon="-8.1144">
        <ele>5.624</ele>
        <time>2011-08-05T11:22:45Z</time>
      </trkpt>
      <trkpt lat="37.07853" lon="-8.11366">
        <ele>6.125</ele>
        <time>2011-08-05T11:22:52Z</time>
      </trkpt>
      <trkpt lat="37.07845" lon="-8.11346">
        <ele>6.041</ele>
        <time>2011-08-05T11:22:54Z</time>
      </trkpt>
      <trkpt lat="37.07839" lon="-8.11301">
        <ele>5.943</ele>
        <time>2011-08-05T11:22:58Z</time>
      </trkpt>
      <trkpt lat="37.07849" lon="-8.11165">
        <ele>6.757</ele>
        <time>2011-08-05T11:23:09Z</time>
      </trkpt>
      <trkpt lat="37.07883" lon="-8.11103">
        <ele>8.24</ele>
        <time>2011-08-05T11:23:16Z</time>
      </trkpt>
      <trkpt lat="37.079" lon="-8.11086">
        <ele>7.737</ele>
        <time>2011-08-05T11:23:19Z</time>
      </trkpt>
      <trkpt lat="37.07912" lon="-8.11026">
        <ele>7.854</ele>
        <time>2011-08-05T11:23:26Z</time>
      </trkpt>
      <trkpt lat="37.07895" lon="-8.10982">
        <ele>8.611</ele>
        <time>2011-08-05T11:23:30Z</time>
      </trkpt>
      <trkpt lat="37.07841" lon="-8.10925">
        <ele>6.817</ele>
        <time>2011-08-05T11:23:37Z</time>
      </trkpt>
      <trkpt lat="37.07707" lon="-8.1085">
        <ele>4.406</ele>
        <time>2011-08-05T11:23:51Z</time>
      </trkpt>
      <trkpt lat="37.07694" lon="-8.10841">
        <ele>3.899</ele>
        <time>2011-08-05T11:23:58Z</time>
      </trkpt>
      <trkpt lat="37.07661" lon="-8.10819">
        <ele>5.973</ele>
        <time>2011-08-05T11:24:06Z</time>
      </trkpt>
      <trkpt lat="37.07631" lon="-8.10799">
        <ele>9.722</ele>
        <time>2011-08-05T11:24:17Z</time>
      </trkpt>
      <trkpt lat="37.07605" lon="-8.10784">
        <ele>10.456</ele>
        <time>2011-08-05T11:24:44Z</time>
      </trkpt>
      <trkpt lat="37.0759" lon="-8.10774">
        <ele>9.986</ele>
        <time>2011-08-05T11:24:46Z</time>
      </trkpt>
      <trkpt lat="37.07562" lon="-8.10686">
        <ele>9.633</ele>
        <time>2011-08-05T11:24:54Z</time>
      </trkpt>
      <trkpt lat="37.07576" lon="-8.10615">
        <ele>9.641</ele>
        <time>2011-08-05T11:25:00Z</time>
      </trkpt>
      <trkpt lat="37.07616" lon="-8.10572">
        <ele>9.287</ele>
        <time>2011-08-05T11:25:05Z</time>
      </trkpt>
      <trkpt lat="37.07768" lon="-8.10515">
        <ele>9.364</ele>
        <time>2011-08-05T11:25:18Z</time>
      </trkpt>
      <trkpt lat="37.07788" lon="-8.10502">
        <ele>9.597</ele>
        <time>2011-08-05T11:25:20Z</time>
      </trkpt>
      <trkpt lat="37.07826" lon="-8.10421">
        <ele>11.073</ele>
        <time>2011-08-05T11:25:27Z</time>
      </trkpt>
      <trkpt lat="37.07826" lon="-8.10395">
        <ele>11.951</ele>
        <time>2011-08-05T11:25:29Z</time>
      </trkpt>
      <trkpt lat="37.07814" lon="-8.10326">
        <ele>16.545</ele>
        <time>2011-08-05T11:25:34Z</time>
      </trkpt>
      <trkpt lat="37.07799" lon="-8.10262">
        <ele>17.256</ele>
        <time>2011-08-05T11:25:39Z</time>
      </trkpt>
      <trkpt lat="37.07806" lon="-8.10097">
        <ele>20.268</ele>
        <time>2011-08-05T11:25:50Z</time>
      </trkpt>
      <trkpt lat="37.07809" lon="-8.10036">
        <ele>20.31</ele>
        <time>2011-08-05T11:25:54Z</time>
      </trkpt>
      <trkpt lat="37.07798" lon="-8.09977">
        <ele>21.035</ele>
        <time>2011-08-05T11:25:58Z</time>
      </trkpt>
      <trkpt lat="37.07747" lon="-8.09877">
        <ele>21.739</ele>
        <time>2011-08-05T11:26:06Z</time>
      </trkpt>
      <trkpt lat="37.07744" lon="-8.09822">
        <ele>22.205</ele>
        <time>2011-08-05T11:26:10Z</time>
      </trkpt>
      <trkpt lat="37.07744" lon="-8.09785">
        <ele>21.671</ele>
        <time>2011-08-05T11:26:13Z</time>
      </trkpt>
      <trkpt lat="37.07738" lon="-8.09761">
        <ele>21.212</ele>
        <time>2011-08-05T11:26:16Z</time>
      </trkpt>
      <trkpt lat="37.07757" lon="-8.09744">
        <ele>16.693</ele>
        <time>2011-08-05T11:26:22Z</time>
      </trkpt>
      <trkpt lat="37.07759" lon="-8.09749">
        <ele>17.153</ele>
        <time>2011-08-05T11:26:23Z</time>
      </trkpt>
      <trkpt lat="37.07857" lon="-8.09804">
        <ele>23.518</ele>
        <time>2011-08-05T11:26:33Z</time>
      </trkpt>
      <trkpt lat="37.08009" lon="-8.09882">
        <ele>34.083</ele>
        <time>2011-08-05T11:26:46Z</time>
      </trkpt>
      <trkpt lat="37.08202" lon="-8.09972">
        <ele>40.212</ele>
        <time>2011-08-05T11:27:01Z</time>
      </trkpt>
      <trkpt lat="37.08373" lon="-8.10042">
        <ele>41.296</ele>
        <time>2011-08-05T11:27:14Z</time>
      </trkpt>
      <trkpt lat="37.08473" lon="-8.10073">
        <ele>44.406</ele>
        <time>2011-08-05T11:27:22Z</time>
      </trkpt>
      <trkpt lat="37.08694" lon="-8.10114">
        <ele>49.165</ele>
        <time>2011-08-05T11:27:39Z</time>
      </trkpt>
      <trkpt lat="37.08895" lon="-8.10155">
        <ele>53.814</ele>
        <time>2011-08-05T11:27:54Z</time>
      </trkpt>
      <trkpt lat="37.08965" lon="-8.10168">
        <ele>54.049</ele>
        <time>2011-08-05T11:28:00Z</time>
      </trkpt>
      <trkpt lat="37.09116" lon="-8.10242">
        <ele>47.63</ele>
        <time>2011-08-05T11:28:12Z</time>
      </trkpt>
      <trkpt lat="37.09208" lon="-8.10282">
        <ele>48.249</ele>
        <time>2011-08-05T11:28:19Z</time>
      </trkpt>
      <trkpt lat="37.09281" lon="-8.10264">
        <ele>53.844</ele>
        <time>2011-08-05T11:28:26Z</time>
      </trkpt>
      <trkpt lat="37.09332" lon="-8.1022">
        <ele>57.765</ele>
        <time>2011-08-05T11:28:31Z</time>
      </trkpt>
      <trkpt lat="37.09386" lon="-8.10107">
        <ele>62.265</ele>
        <time>2011-08-05T11:28:39Z</time>
      </trkpt>
      <trkpt lat="37.09393" lon="-8.1003">
        <ele>64.496</ele>
        <time>2011-08-05T11:28:44Z</time>
      </trkpt>
      <trkpt lat="37.09381" lon="-8.09823">
        <ele>60.167</ele>
        <time>2011-08-05T11:28:59Z</time>
      </trkpt>
      <trkpt lat="37.09384" lon="-8.09817">
        <ele>60.037</ele>
        <time>2011-08-05T11:29:00Z</time>
      </trkpt>
      <trkpt lat="37.0939" lon="-8.09766">
        <ele>60.39</ele>
        <time>2011-08-05T11:29:08Z</time>
      </trkpt>
      <trkpt lat="37.09392" lon="-8.09772">
        <ele>60.591</ele>
        <time>2011-08-05T11:29:09Z</time>
      </trkpt>
      <trkpt lat="37.09401" lon="-8.09792">
        <ele>58.848</ele>
        <time>2011-08-05T11:29:12Z</time>
      </trkpt>
      <trkpt lat="37.09426" lon="-8.09795">
        <ele>56.361</ele>
        <time>2011-08-05T11:29:16Z</time>
      </trkpt>
      <trkpt lat="37.09535" lon="-8.09771">
        <ele>57.048</ele>
        <time>2011-08-05T11:29:26Z</time>
      </trkpt>
      <trkpt lat="37.09716" lon="-8.0975">
        <ele>50.189</ele>
        <time>2011-08-05T11:29:40Z</time>
      </trkpt>
      <trkpt lat="37.09773" lon="-8.09723">
        <ele>48.386</ele>
        <time>2011-08-05T11:29:45Z</time>
      </trkpt>
      <trkpt lat="37.09895" lon="-8.09655">
        <ele>45.68</ele>
        <time>2011-08-05T11:29:55Z</time>
      </trkpt>
      <trkpt lat="37.0996" lon="-8.0967">
        <ele>43.606</ele>
        <time>2011-08-05T11:30:00Z</time>
      </trkpt>
      <trkpt lat="37.09998" lon="-8.09697">
        <ele>40.62</ele>
        <time>2011-08-05T11:30:03Z</time>
      </trkpt>
      <trkpt lat="37.10047" lon="-8.097">
        <ele>41.19</ele>
        <time>2011-08-05T11:30:07Z</time>
      </trkpt>
      <trkpt lat="37.101" lon="-8.09692">
        <ele>41.464</ele>
        <time>2011-08-05T11:30:11Z</time>
      </trkpt>
      <trkpt lat="37.10152" lon="-8.09703">
        <ele>39.765</ele>
        <time>2011-08-05T11:30:15Z</time>
      </trkpt>
      <trkpt lat="37.10218" lon="-8.09727">
        <ele>39.099</ele>
        <time>2011-08-05T11:30:20Z</time>
      </trkpt>
      <trkpt lat="37.10267" lon="-8.09717">
        <ele>41.991</ele>
        <time>2011-08-05T11:30:24Z</time>
      </trkpt>
      <trkpt lat="37.10291" lon="-8.09704">
        <ele>42.522</ele>
        <time>2011-08-05T11:30:26Z</time>
      </trkpt>
      <trkpt lat="37.10339" lon="-8.09707">
        <ele>43.145</ele>
        <time>2011-08-05T11:30:30Z</time>
      </trkpt>
      <trkpt lat="37.10361" lon="-8.09712">
        <ele>43.472</ele>
        <time>2011-08-05T11:30:32Z</time>
      </trkpt>
      <trkpt lat="37.10451" lon="-8.09682">
        <ele>47.646</ele>
        <time>2011-08-05T11:30:40Z</time>
      </trkpt>
      <trkpt lat="37.10492" lon="-8.09652">
        <ele>49.042</ele>
        <time>2011-08-05T11:30:44Z</time>
      </trkpt>
      <trkpt lat="37.10537" lon="-8.0964">
        <ele>49.386</ele>
        <time>2011-08-05T11:30:48Z</time>
      </trkpt>
      <trkpt lat="37.10715" lon="-8.09646">
        <ele>43.466</ele>
        <time>2011-08-05T11:31:01Z</time>
      </trkpt>
      <trkpt lat="37.10895" lon="-8.09663">
        <ele>39.857</ele>
        <time>2011-08-05T11:31:14Z</time>
      </trkpt>
      <trkpt lat="37.1098" lon="-8.09671">
        <ele>40.614</ele>
        <time>2011-08-05T11:31:22Z</time>
      </trkpt>
      <trkpt lat="37.11001" lon="-8.09671">
        <ele>40.851</ele>
        <time>2011-08-05T11:31:29Z</time>
      </trkpt>
      <trkpt lat="37.11007" lon="-8.0967">
        <ele>39.882</ele>
        <time>2011-08-05T11:31:41Z</time>
      </trkpt>
      <trkpt lat="37.11009" lon="-8.09668">
        <ele>39.96</ele>
        <time>2011-08-05T11:31:43Z</time>
      </trkpt>
      <trkpt lat="37.11033" lon="-8.09724">
        <ele>38.817</ele>
        <time>2011-08-05T11:31:50Z</time>
      </trkpt>
      <trkpt lat="37.11069" lon="-8.09895">
        <ele>36.884</ele>
        <time>2011-08-05T11:32:01Z</time>
      </trkpt>
      <trkpt lat="37.11133" lon="-8.10201">
        <ele>33.388</ele>
        <time>2011-08-05T11:32:18Z</time>
      </trkpt>
      <trkpt lat="37.1123" lon="-8.10621">
        <ele>25.718</ele>
        <time>2011-08-05T11:32:41Z</time>
      </trkpt>
      <trkpt lat="37.11289" lon="-8.10885">
        <ele>23.112</ele>
        <time>2011-08-05T11:32:54Z</time>
      </trkpt>
      <trkpt lat="37.11373" lon="-8.11165">
        <ele>22.676</ele>
        <time>2011-08-05T11:33:08Z</time>
      </trkpt>
      <trkpt lat="37.11471" lon="-8.11489">
        <ele>22.335</ele>
        <time>2011-08-05T11:33:26Z</time>
      </trkpt>
      <trkpt lat="37.11522" lon="-8.11656">
        <ele>22.599</ele>
        <time>2011-08-05T11:33:37Z</time>
      </trkpt>
      <trkpt lat="37.11553" lon="-8.11755">
        <ele>23.262</ele>
        <time>2011-08-05T11:33:48Z</time>
      </trkpt>
      <trkpt lat="37.11556" lon="-8.11765">
        <ele>23.479</ele>
        <time>2011-08-05T11:33:56Z</time>
      </trkpt>
      <trkpt lat="37.11568" lon="-8.11798">
        <ele>24.324</ele>
        <time>2011-08-05T11:34:24Z</time>
      </trkpt>
      <trkpt lat="37.11606" lon="-8.11917">
        <ele>25.501</ele>
        <time>2011-08-05T11:34:34Z</time>
      </trkpt>
      <trkpt lat="37.11661" lon="-8.12152">
        <ele>27.283</ele>
        <time>2011-08-05T11:34:51Z</time>
      </trkpt>
      <trkpt lat="37.11703" lon="-8.12485">
        <ele>26.784</ele>
        <time>2011-08-05T11:35:12Z</time>
      </trkpt>
      <trkpt lat="37.11734" lon="-8.12728">
        <ele>26.952</ele>
        <time>2011-08-05T11:35:27Z</time>
      </trkpt>
      <trkpt lat="37.11783" lon="-8.13152">
        <ele>32.393</ele>
        <time>2011-08-05T11:35:52Z</time>
      </trkpt>
      <trkpt lat="37.11823" lon="-8.13464">
        <ele>33.16</ele>
        <time>2011-08-05T11:36:09Z</time>
      </trkpt>
      <trkpt lat="37.11862" lon="-8.138">
        <ele>33.022</ele>
        <time>2011-08-05T11:36:27Z</time>
      </trkpt>
      <trkpt lat="37.11867" lon="-8.13842">
        <ele>33.242</ele>
        <time>2011-08-05T11:36:33Z</time>
      </trkpt>
      <trkpt lat="37.11868" lon="-8.13853">
        <ele>33.044</ele>
        <time>2011-08-05T11:36:42Z</time>
      </trkpt>
      <trkpt lat="37.1184" lon="-8.13862">
        <ele>34.165</ele>
        <time>2011-08-05T11:36:47Z</time>
      </trkpt>
      <trkpt lat="37.11808" lon="-8.13916">
        <ele>34.671</ele>
        <time>2011-08-05T11:36:54Z</time>
      </trkpt>
      <trkpt lat="37.11808" lon="-8.14061">
        <ele>36.994</ele>
        <time>2011-08-05T11:37:06Z</time>
      </trkpt>
      <trkpt lat="37.11817" lon="-8.14273">
        <ele>38.407</ele>
        <time>2011-08-05T11:37:20Z</time>
      </trkpt>
      <trkpt lat="37.11847" lon="-8.1451">
        <ele>35.183</ele>
        <time>2011-08-05T11:37:35Z</time>
      </trkpt>
      <trkpt lat="37.11847" lon="-8.14522">
        <ele>35.425</ele>
        <time>2011-08-05T11:37:36Z</time>
      </trkpt>
      <trkpt lat="37.11812" lon="-8.1457">
        <ele>35.518</ele>
        <time>2011-08-05T11:37:42Z</time>
      </trkpt>
      <trkpt lat="37.11747" lon="-8.14602">
        <ele>33.584</ele>
        <time>2011-08-05T11:37:48Z</time>
      </trkpt>
      <trkpt lat="37.11657" lon="-8.14701">
        <ele>31.809</ele>
        <time>2011-08-05T11:37:57Z</time>
      </trkpt>
      <trkpt lat="37.11628" lon="-8.14737">
        <ele>31.524</ele>
        <time>2011-08-05T11:38:00Z</time>
      </trkpt>
      <trkpt lat="37.11611" lon="-8.14798">
        <ele>29.042</ele>
        <time>2011-08-05T11:38:04Z</time>
      </trkpt>
      <trkpt lat="37.11604" lon="-8.14879">
        <ele>28.13</ele>
        <time>2011-08-05T11:38:09Z</time>
      </trkpt>
      <trkpt lat="37.11556" lon="-8.15004">
        <ele>21.705</ele>
        <time>2011-08-05T11:38:18Z</time>
      </trkpt>
      <trkpt lat="37.11476" lon="-8.15183">
        <ele>16.305</ele>
        <time>2011-08-05T11:38:30Z</time>
      </trkpt>
      <trkpt lat="37.11389" lon="-8.1531">
        <ele>17.791</ele>
        <time>2011-08-05T11:38:39Z</time>
      </trkpt>
      <trkpt lat="37.11194" lon="-8.15528">
        <ele>15.054</ele>
        <time>2011-08-05T11:38:56Z</time>
      </trkpt>
      <trkpt lat="37.11037" lon="-8.15711">
        <ele>10.583</ele>
        <time>2011-08-05T11:39:09Z</time>
      </trkpt>
      <trkpt lat="37.10961" lon="-8.15884">
        <ele>10.217</ele>
        <time>2011-08-05T11:39:19Z</time>
      </trkpt>
      <trkpt lat="37.10934" lon="-8.15952">
        <ele>9.774</ele>
        <time>2011-08-05T11:39:23Z</time>
      </trkpt>
      <trkpt lat="37.10842" lon="-8.16095">
        <ele>9.713</ele>
        <time>2011-08-05T11:39:33Z</time>
      </trkpt>
      <trkpt lat="37.10835" lon="-8.16104">
        <ele>9.725</ele>
        <time>2011-08-05T11:39:34Z</time>
      </trkpt>
      <trkpt lat="37.1082" lon="-8.16184">
        <ele>10.19</ele>
        <time>2011-08-05T11:39:41Z</time>
      </trkpt>
      <trkpt lat="37.10813" lon="-8.16365">
        <ele>11.732</ele>
        <time>2011-08-05T11:39:52Z</time>
      </trkpt>
      <trkpt lat="37.10822" lon="-8.16617">
        <ele>18.145</ele>
        <time>2011-08-05T11:40:05Z</time>
      </trkpt>
      <trkpt lat="37.10836" lon="-8.1686">
        <ele>23.126</ele>
        <time>2011-08-05T11:40:18Z</time>
      </trkpt>
      <trkpt lat="37.10859" lon="-8.17034">
        <ele>25.802</ele>
        <time>2011-08-05T11:40:28Z</time>
      </trkpt>
      <trkpt lat="37.10921" lon="-8.17314">
        <ele>30.995</ele>
        <time>2011-08-05T11:40:47Z</time>
      </trkpt>
      <trkpt lat="37.10911" lon="-8.17456">
        <ele>34.285</ele>
        <time>2011-08-05T11:40:56Z</time>
      </trkpt>
      <trkpt lat="37.10874" lon="-8.17773">
        <ele>41.613</ele>
        <time>2011-08-05T11:41:16Z</time>
      </trkpt>
      <trkpt lat="37.10849" lon="-8.17973">
        <ele>46.499</ele>
        <time>2011-08-05T11:41:29Z</time>
      </trkpt>
      <trkpt lat="37.10827" lon="-8.18065">
        <ele>46.656</ele>
        <time>2011-08-05T11:41:38Z</time>
      </trkpt>
      <trkpt lat="37.10823" lon="-8.18079">
        <ele>46.599</ele>
        <time>2011-08-05T11:41:45Z</time>
      </trkpt>
      <trkpt lat="37.10792" lon="-8.1816">
        <ele>45.716</ele>
        <time>2011-08-05T11:41:55Z</time>
      </trkpt>
      <trkpt lat="37.10709" lon="-8.18384">
        <ele>46.701</ele>
        <time>2011-08-05T11:42:16Z</time>
      </trkpt>
      <trkpt lat="37.10614" lon="-8.1864">
        <ele>50.078</ele>
        <time>2011-08-05T11:42:38Z</time>
      </trkpt>
      <trkpt lat="37.10604" lon="-8.18669">
        <ele>50.188</ele>
        <time>2011-08-05T11:42:41Z</time>
      </trkpt>
      <trkpt lat="37.10586" lon="-8.18735">
        <ele>49.885</ele>
        <time>2011-08-05T11:42:48Z</time>
      </trkpt>
      <trkpt lat="37.10568" lon="-8.18757">
        <ele>50.673</ele>
        <time>2011-08-05T11:42:50Z</time>
      </trkpt>
      <trkpt lat="37.105" lon="-8.18942">
        <ele>53.788</ele>
        <time>2011-08-05T11:43:03Z</time>
      </trkpt>
      <trkpt lat="37.10402" lon="-8.19241">
        <ele>54.795</ele>
        <time>2011-08-05T11:43:24Z</time>
      </trkpt>
      <trkpt lat="37.10399" lon="-8.19381">
        <ele>55.769</ele>
        <time>2011-08-05T11:43:34Z</time>
      </trkpt>
      <trkpt lat="37.10413" lon="-8.19626">
        <ele>53.387</ele>
        <time>2011-08-05T11:43:52Z</time>
      </trkpt>
      <trkpt lat="37.10438" lon="-8.19688">
        <ele>51.86</ele>
        <time>2011-08-05T11:43:57Z</time>
      </trkpt>
      <trkpt lat="37.10474" lon="-8.19749">
        <ele>51.108</ele>
        <time>2011-08-05T11:44:05Z</time>
      </trkpt>
      <trkpt lat="37.10503" lon="-8.19798">
        <ele>50.496</ele>
        <time>2011-08-05T11:44:14Z</time>
      </trkpt>
      <trkpt lat="37.10584" lon="-8.19926">
        <ele>56.167</ele>
        <time>2011-08-05T11:44:26Z</time>
      </trkpt>
      <trkpt lat="37.10598" lon="-8.19949">
        <ele>56.986</ele>
        <time>2011-08-05T11:44:28Z</time>
      </trkpt>
      <trkpt lat="37.10644" lon="-8.19988">
        <ele>58.386</ele>
        <time>2011-08-05T11:44:33Z</time>
      </trkpt>
      <trkpt lat="37.1073" lon="-8.20039">
        <ele>62.661</ele>
        <time>2011-08-05T11:44:41Z</time>
      </trkpt>
      <trkpt lat="37.10771" lon="-8.20094">
        <ele>65.386</ele>
        <time>2011-08-05T11:44:46Z</time>
      </trkpt>
      <trkpt lat="37.1088" lon="-8.20306">
        <ele>66.851</ele>
        <time>2011-08-05T11:45:01Z</time>
      </trkpt>
      <trkpt lat="37.1088" lon="-8.20377">
        <ele>65.911</ele>
        <time>2011-08-05T11:45:06Z</time>
      </trkpt>
      <trkpt lat="37.10845" lon="-8.2057">
        <ele>67.996</ele>
        <time>2011-08-05T11:45:18Z</time>
      </trkpt>
      <trkpt lat="37.10835" lon="-8.20803">
        <ele>67.834</ele>
        <time>2011-08-05T11:45:32Z</time>
      </trkpt>
      <trkpt lat="37.10843" lon="-8.20918">
        <ele>66.889</ele>
        <time>2011-08-05T11:45:39Z</time>
      </trkpt>
      <trkpt lat="37.10816" lon="-8.21021">
        <ele>67.483</ele>
        <time>2011-08-05T11:45:46Z</time>
      </trkpt>
      <trkpt lat="37.10768" lon="-8.21114">
        <ele>69.549</ele>
        <time>2011-08-05T11:45:55Z</time>
      </trkpt>
      <trkpt lat="37.10738" lon="-8.21222">
        <ele>69.659</ele>
        <time>2011-08-05T11:46:07Z</time>
      </trkpt>
      <trkpt lat="37.10719" lon="-8.21317">
        <ele>68.532</ele>
        <time>2011-08-05T11:46:16Z</time>
      </trkpt>
      <trkpt lat="37.10694" lon="-8.21358">
        <ele>66.348</ele>
        <time>2011-08-05T11:46:21Z</time>
      </trkpt>
      <trkpt lat="37.10677" lon="-8.21369">
        <ele>65.411</ele>
        <time>2011-08-05T11:46:30Z</time>
      </trkpt>
      <trkpt lat="37.10677" lon="-8.21369">
        <ele>65.794</ele>
        <time>2011-08-05T11:47:01Z</time>
      </trkpt>
      <trkpt lat="37.10677" lon="-8.21369">
        <ele>65.823</ele>
        <time>2011-08-05T11:47:04Z</time>
      </trkpt>
      <trkpt lat="37.10677" lon="-8.21369">
        <ele>72.604</ele>
        <time>2011-08-05T11:47:18Z</time>
      </trkpt>
      <trkpt lat="37.10677" lon="-8.21369">
        <ele>74.143</ele>
        <time>2011-08-05T11:47:56Z</time>
      </trkpt>
      <trkpt lat="37.10677" lon="-8.21369">
        <ele>73.495</ele>
        <time>2011-08-05T11:48:44Z</time>
      </trkpt>
      <trkpt lat="37.10677" lon="-8.21369">
        <ele>74.107</ele>
        <time>2011-08-05T11:50:11Z</time>
      </trkpt>
      <trkpt lat="37.10677" lon="-8.21369">
        <ele>73.745</ele>
        <time>2011-08-05T11:50:29Z</time>
      </trkpt>
      <trkpt lat="37.10677" lon="-8.21369">
        <ele>73.492</ele>
        <time>2011-08-05T11:50:54Z</time>
      </trkpt>
      <trkpt lat="37.10677" lon="-8.21369">
        <ele>73.488</ele>
        <time>2011-08-05T11:51:17Z</time>
      </trkpt>
      <trkpt lat="37.10677" lon="-8.21369">
        <ele>74.574</ele>
        <time>2011-08-05T11:51:40Z</time>
      </trkpt>
      <trkpt lat="37.10677" lon="-8.21369">
        <ele>75.184</ele>
        <time>2011-08-05T11:52:17Z</time>
      </trkpt>
      <trkpt lat="37.10677" lon="-8.21369">
        <ele>72.555</ele>
        <time>2011-08-05T11:53:40Z</time>
      </trkpt>
      <trkpt lat="37.10677" lon="-8.21369">
        <ele>74.048</ele>
        <time>2011-08-05T11:53:55Z</time>
      </trkpt>
      <trkpt lat="37.10677" lon="-8.21369">
        <ele>72.843</ele>
        <time>2011-08-05T11:55:02Z</time>
      </trkpt>
      <trkpt lat="37.10677" lon="-8.21369">
        <ele>73.955</ele>
        <time>2011-08-05T11:55:41Z</time>
      </trkpt>
      <trkpt lat="37.10677" lon="-8.21369">
        <ele>73.557</ele>
        <time>2011-08-05T11:55:56Z</time>
      </trkpt>
      <trkpt lat="37.10677" lon="-8.21369">
        <ele>72.11</ele>
        <time>2011-08-05T11:56:13Z</time>
      </trkpt>
      <trkpt lat="37.10677" lon="-8.21369">
        <ele>70.003</ele>
        <time>2011-08-05T11:56:35Z</time>
      </trkpt>
      <trkpt lat="37.10677" lon="-8.21369">
        <ele>72.21</ele>
        <time>2011-08-05T11:56:54Z</time>
      </trkpt>
      <trkpt lat="37.10671" lon="-8.21373">
        <ele>76.347</ele>
        <time>2011-08-05T11:57:07Z</time>
      </trkpt>
      <trkpt lat="37.10671" lon="-8.21373">
        <ele>84.769</ele>
        <time>2011-08-05T11:57:25Z</time>
      </trkpt>
      <trkpt lat="37.10671" lon="-8.21373">
        <ele>87.253</ele>
        <time>2011-08-05T11:57:52Z</time>
      </trkpt>
      <trkpt lat="37.10671" lon="-8.21373">
        <ele>87.631</ele>
        <time>2011-08-05T11:58:25Z</time>
      </trkpt>
      <trkpt lat="37.10671" lon="-8.21373">
        <ele>88.036</ele>
        <time>2011-08-05T11:58:29Z</time>
      </trkpt>
      <trkpt lat="37.10647" lon="-8.21387">
        <ele>88.263</ele>
        <time>2011-08-05T11:58:32Z</time>
      </trkpt>
      <trkpt lat="37.10581" lon="-8.21425">
        <ele>88.571</ele>
        <time>2011-08-05T11:58:39Z</time>
      </trkpt>
      <trkpt lat="37.10569" lon="-8.21433">
        <ele>88.716</ele>
        <time>2011-08-05T11:58:40Z</time>
      </trkpt>
      <trkpt lat="37.10451" lon="-8.21469">
        <ele>88.66</ele>
        <time>2011-08-05T11:58:49Z</time>
      </trkpt>
      <trkpt lat="37.10398" lon="-8.21465">
        <ele>88.463</ele>
        <time>2011-08-05T11:58:53Z</time>
      </trkpt>
      <trkpt lat="37.10365" lon="-8.21466">
        <ele>88.421</ele>
        <time>2011-08-05T11:58:55Z</time>
      </trkpt>
      <trkpt lat="37.10341" lon="-8.21471">
        <ele>88.299</ele>
        <time>2011-08-05T11:58:57Z</time>
      </trkpt>
      <trkpt lat="37.10265" lon="-8.21528">
        <ele>86.19</ele>
        <time>2011-08-05T11:59:07Z</time>
      </trkpt>
      <trkpt lat="37.10222" lon="-8.2156">
        <ele>82.669</ele>
        <time>2011-08-05T11:59:18Z</time>
      </trkpt>
      <trkpt lat="37.10149" lon="-8.21638">
        <ele>76.194</ele>
        <time>2011-08-05T11:59:29Z</time>
      </trkpt>
      <trkpt lat="37.10123" lon="-8.2166">
        <ele>74.382</ele>
        <time>2011-08-05T11:59:32Z</time>
      </trkpt>
      <trkpt lat="37.10085" lon="-8.21673">
        <ele>71.818</ele>
        <time>2011-08-05T11:59:36Z</time>
      </trkpt>
      <trkpt lat="37.09977" lon="-8.21699">
        <ele>66.535</ele>
        <time>2011-08-05T11:59:47Z</time>
      </trkpt>
      <trkpt lat="37.09941" lon="-8.21719">
        <ele>64.208</ele>
        <time>2011-08-05T11:59:52Z</time>
      </trkpt>
      <trkpt lat="37.09926" lon="-8.21737">
        <ele>63.237</ele>
        <time>2011-08-05T11:59:55Z</time>
      </trkpt>
      <trkpt lat="37.09908" lon="-8.21759">
        <ele>61.543</ele>
        <time>2011-08-05T12:00:00Z</time>
      </trkpt>
      <trkpt lat="37.09899" lon="-8.21768">
        <ele>60.539</ele>
        <time>2011-08-05T12:00:02Z</time>
      </trkpt>
      <trkpt lat="37.09871" lon="-8.21798">
        <ele>58.851</ele>
        <time>2011-08-05T12:00:07Z</time>
      </trkpt>
      <trkpt lat="37.09858" lon="-8.21815">
        <ele>56.452</ele>
        <time>2011-08-05T12:00:09Z</time>
      </trkpt>
      <trkpt lat="37.0979" lon="-8.21905">
        <ele>51.102</ele>
        <time>2011-08-05T12:00:19Z</time>
      </trkpt>
      <trkpt lat="37.09727" lon="-8.2204">
        <ele>35.769</ele>
        <time>2011-08-05T12:00:29Z</time>
      </trkpt>
      <trkpt lat="37.09634" lon="-8.22289">
        <ele>36.152</ele>
        <time>2011-08-05T12:00:47Z</time>
      </trkpt>
      <trkpt lat="37.09598" lon="-8.22381">
        <ele>42.701</ele>
        <time>2011-08-05T12:00:58Z</time>
      </trkpt>
      <trkpt lat="37.09583" lon="-8.22419">
        <ele>46.467</ele>
        <time>2011-08-05T12:01:07Z</time>
      </trkpt>
      <trkpt lat="37.0959" lon="-8.22425">
        <ele>46.859</ele>
        <time>2011-08-05T12:01:23Z</time>
      </trkpt>
      <trkpt lat="37.0959" lon="-8.2243">
        <ele>46.849</ele>
        <time>2011-08-05T12:01:24Z</time>
      </trkpt>
      <trkpt lat="37.09559" lon="-8.22475">
        <ele>48.375</ele>
        <time>2011-08-05T12:01:30Z</time>
      </trkpt>
      <trkpt lat="37.095" lon="-8.22654">
        <ele>51.937</ele>
        <time>2011-08-05T12:01:45Z</time>
      </trkpt>
      <trkpt lat="37.09449" lon="-8.22798">
        <ele>47.215</ele>
        <time>2011-08-05T12:01:58Z</time>
      </trkpt>
      <trkpt lat="37.09446" lon="-8.22806">
        <ele>47.315</ele>
        <time>2011-08-05T12:02:05Z</time>
      </trkpt>
      <trkpt lat="37.09435" lon="-8.22833">
        <ele>47.194</ele>
        <time>2011-08-05T12:02:35Z</time>
      </trkpt>
      <trkpt lat="37.09422" lon="-8.22929">
        <ele>46.825</ele>
        <time>2011-08-05T12:02:44Z</time>
      </trkpt>
      <trkpt lat="37.0941" lon="-8.23144">
        <ele>43.939</ele>
        <time>2011-08-05T12:03:00Z</time>
      </trkpt>
      <trkpt lat="37.09391" lon="-8.23279">
        <ele>38.537</ele>
        <time>2011-08-05T12:03:12Z</time>
      </trkpt>
      <trkpt lat="37.09392" lon="-8.23279">
        <ele>38.055</ele>
        <time>2011-08-05T12:03:14Z</time>
      </trkpt>
      <trkpt lat="37.09384" lon="-8.23309">
        <ele>36.971</ele>
        <time>2011-08-05T12:03:20Z</time>
      </trkpt>
      <trkpt lat="37.09377" lon="-8.23322">
        <ele>36.612</ele>
        <time>2011-08-05T12:03:22Z</time>
      </trkpt>
      <trkpt lat="37.09316" lon="-8.23433">
        <ele>33.88</ele>
        <time>2011-08-05T12:03:32Z</time>
      </trkpt>
      <trkpt lat="37.09278" lon="-8.23601">
        <ele>32.35</ele>
        <time>2011-08-05T12:03:43Z</time>
      </trkpt>
      <trkpt lat="37.09235" lon="-8.23829">
        <ele>40.616</ele>
        <time>2011-08-05T12:03:59Z</time>
      </trkpt>
      <trkpt lat="37.09204" lon="-8.23954">
        <ele>43.052</ele>
        <time>2011-08-05T12:04:10Z</time>
      </trkpt>
      <trkpt lat="37.092" lon="-8.23975">
        <ele>42.913</ele>
        <time>2011-08-05T12:04:17Z</time>
      </trkpt>
      <trkpt lat="37.09203" lon="-8.23988">
        <ele>43.009</ele>
        <time>2011-08-05T12:04:21Z</time>
      </trkpt>
      <trkpt lat="37.09193" lon="-8.24013">
        <ele>43.211</ele>
        <time>2011-08-05T12:04:25Z</time>
      </trkpt>
      <trkpt lat="37.09186" lon="-8.24028">
        <ele>43.023</ele>
        <time>2011-08-05T12:04:27Z</time>
      </trkpt>
      <trkpt lat="37.09143" lon="-8.24173">
        <ele>42.186</ele>
        <time>2011-08-05T12:04:42Z</time>
      </trkpt>
      <trkpt lat="37.09118" lon="-8.24274">
        <ele>41.42</ele>
        <time>2011-08-05T12:04:53Z</time>
      </trkpt>
      <trkpt lat="37.09114" lon="-8.24295">
        <ele>41.099</ele>
        <time>2011-08-05T12:05:02Z</time>
      </trkpt>
      <trkpt lat="37.09109" lon="-8.24375">
        <ele>39.003</ele>
        <time>2011-08-05T12:05:10Z</time>
      </trkpt>
      <trkpt lat="37.0911" lon="-8.24426">
        <ele>37.709</ele>
        <time>2011-08-05T12:05:18Z</time>
      </trkpt>
      <trkpt lat="37.09112" lon="-8.24454">
        <ele>37.247</ele>
        <time>2011-08-05T12:05:25Z</time>
      </trkpt>
      <trkpt lat="37.09146" lon="-8.24543">
        <ele>37.238</ele>
        <time>2011-08-05T12:05:35Z</time>
      </trkpt>
      <trkpt lat="37.09216" lon="-8.24652">
        <ele>41.683</ele>
        <time>2011-08-05T12:05:45Z</time>
      </trkpt>
      <trkpt lat="37.09348" lon="-8.24801">
        <ele>51.131</ele>
        <time>2011-08-05T12:06:01Z</time>
      </trkpt>
      <trkpt lat="37.09419" lon="-8.24879">
        <ele>54.204</ele>
        <time>2011-08-05T12:06:12Z</time>
      </trkpt>
      <trkpt lat="37.09447" lon="-8.24906">
        <ele>53.871</ele>
        <time>2011-08-05T12:06:20Z</time>
      </trkpt>
      <trkpt lat="37.09454" lon="-8.24906">
        <ele>52.859</ele>
        <time>2011-08-05T12:06:26Z</time>
      </trkpt>
      <trkpt lat="37.09459" lon="-8.24909">
        <ele>52.672</ele>
        <time>2011-08-05T12:06:28Z</time>
      </trkpt>
      <trkpt lat="37.09487" lon="-8.24974">
        <ele>50.977</ele>
        <time>2011-08-05T12:06:36Z</time>
      </trkpt>
      <trkpt lat="37.09512" lon="-8.25083">
        <ele>45.974</ele>
        <time>2011-08-05T12:06:45Z</time>
      </trkpt>
      <trkpt lat="37.09492" lon="-8.2519">
        <ele>39.203</ele>
        <time>2011-08-05T12:06:53Z</time>
      </trkpt>
      <trkpt lat="37.09425" lon="-8.25303">
        <ele>31.127</ele>
        <time>2011-08-05T12:07:03Z</time>
      </trkpt>
      <trkpt lat="37.09401" lon="-8.25339">
        <ele>28.107</ele>
        <time>2011-08-05T12:07:11Z</time>
      </trkpt>
      <trkpt lat="37.09388" lon="-8.25359">
        <ele>26.913</ele>
        <time>2011-08-05T12:07:19Z</time>
      </trkpt>
      <trkpt lat="37.09383" lon="-8.25378">
        <ele>24.74</ele>
        <time>2011-08-05T12:07:23Z</time>
      </trkpt>
      <trkpt lat="37.09362" lon="-8.254">
        <ele>23.957</ele>
        <time>2011-08-05T12:07:28Z</time>
      </trkpt>
      <trkpt lat="37.09286" lon="-8.25518">
        <ele>24.246</ele>
        <time>2011-08-05T12:07:38Z</time>
      </trkpt>
      <trkpt lat="37.09206" lon="-8.25581">
        <ele>29.636</ele>
        <time>2011-08-05T12:07:45Z</time>
      </trkpt>
      <trkpt lat="37.091" lon="-8.25602">
        <ele>36.285</ele>
        <time>2011-08-05T12:07:53Z</time>
      </trkpt>
      <trkpt lat="37.09064" lon="-8.25608">
        <ele>39.367</ele>
        <time>2011-08-05T12:07:56Z</time>
      </trkpt>
      <trkpt lat="37.09026" lon="-8.25628">
        <ele>42.112</ele>
        <time>2011-08-05T12:08:00Z</time>
      </trkpt>
      <trkpt lat="37.08997" lon="-8.25686">
        <ele>46.226</ele>
        <time>2011-08-05T12:08:08Z</time>
      </trkpt>
      <trkpt lat="37.08996" lon="-8.25691">
        <ele>46.383</ele>
        <time>2011-08-05T12:08:09Z</time>
      </trkpt>
      <trkpt lat="37.08996" lon="-8.25699">
        <ele>46.523</ele>
        <time>2011-08-05T12:08:18Z</time>
      </trkpt>
      <trkpt lat="37.08994" lon="-8.25721">
        <ele>47.206</ele>
        <time>2011-08-05T12:08:59Z</time>
      </trkpt>
      <trkpt lat="37.08972" lon="-8.25737">
        <ele>47.581</ele>
        <time>2011-08-05T12:09:05Z</time>
      </trkpt>
      <trkpt lat="37.08878" lon="-8.25722">
        <ele>43.266</ele>
        <time>2011-08-05T12:09:16Z</time>
      </trkpt>
      <trkpt lat="37.08853" lon="-8.25717">
        <ele>43.084</ele>
        <time>2011-08-05T12:09:25Z</time>
      </trkpt>
      <trkpt lat="37.08849" lon="-8.25716">
        <ele>42.956</ele>
        <time>2011-08-05T12:09:29Z</time>
      </trkpt>
      <trkpt lat="37.08833" lon="-8.25712">
        <ele>42.481</ele>
        <time>2011-08-05T12:09:32Z</time>
      </trkpt>
      <trkpt lat="37.08816" lon="-8.25696">
        <ele>42.904</ele>
        <time>2011-08-05T12:09:41Z</time>
      </trkpt>
      <trkpt lat="37.08817" lon="-8.25697">
        <ele>42.759</ele>
        <time>2011-08-05T12:09:42Z</time>
      </trkpt>
      <trkpt lat="37.0883" lon="-8.25712">
        <ele>43.755</ele>
        <time>2011-08-05T12:09:45Z</time>
      </trkpt>
      <trkpt lat="37.08865" lon="-8.2572">
        <ele>46.251</ele>
        <time>2011-08-05T12:09:54Z</time>
      </trkpt>
      <trkpt lat="37.0887" lon="-8.2569">
        <ele>47.825</ele>
        <time>2011-08-05T12:10:00Z</time>
      </trkpt>
      <trkpt lat="37.08864" lon="-8.25623">
        <ele>41.51</ele>
        <time>2011-08-05T12:10:15Z</time>
      </trkpt>
      <trkpt lat="37.08864" lon="-8.25632">
        <ele>40.094</ele>
        <time>2011-08-05T12:10:20Z</time>
      </trkpt>
      <trkpt lat="37.08865" lon="-8.25644">
        <ele>39.265</ele>
        <time>2011-08-05T12:10:23Z</time>
      </trkpt>
      <trkpt lat="37.08865" lon="-8.25651">
        <ele>38.594</ele>
        <time>2011-08-05T12:10:27Z</time>
      </trkpt>
    </trkseg>
  </trk>
</gpx>